sensor_id;sensor_type;location;lat;lon;timestamp;P1;durP1;ratioP1;P2;durP2;ratioP2
77854;SDS011;67046;50.088;14.336;2023-02-03T00:00:27;6.20;;;2.50;;
77854;SDS011;67046;50.088;14.336;2023-02-03T00:01:22;5.80;;;2.70;;
77854;SDS011;67046;50.088;14.336;2023-02-03T00:01:54;6.90;;;2.90;;
77854;SDS011;67046;50.088;14.336;2023-02-03T00:02:26;8.40;;;3.00;;
77854;SDS011;67046;50.088;14.336;2023-02-03T00:02:58;6.30;;;2.40;;
77854;SDS011;67046;50.088;14.336;2023-02-03T00:03:30;6.70;;;2.70;;
77854;SDS011;67046;50.088;14.336;2023-02-03T00:04:02;7.50;;;2.50;;
77854;SDS011;67046;50.088;14.336;2023-02-03T00:04:34;7.30;;;2.30;;
77854;SDS011;67046;50.088;14.336;2023-02-03T00:05:06;5.40;;;2.30;;
77854;SDS011;67046;50.088;14.336;2023-02-03T00:06:11;5.90;;;2.10;;
77854;SDS011;67046;50.088;14.336;2023-02-03T00:06:43;5.00;;;2.10;;
77854;SDS011;67046;50.088;14.336;2023-02-03T00:07:47;7.40;;;2.20;;
77854;SDS011;67046;50.088;14.336;2023-02-03T00:08:19;5.00;;;2.00;;
77854;SDS011;67046;50.088;14.336;2023-02-03T00:08:54;6.80;;;2.60;;
77854;SDS011;67046;50.088;14.336;2023-02-03T00:09:27;6.10;;;2.40;;
77854;SDS011;67046;50.088;14.336;2023-02-03T00:10:00;5.90;;;2.60;;
77854;SDS011;67046;50.088;14.336;2023-02-03T00:10:33;6.90;;;1.90;;
77854;SDS011;67046;50.088;14.336;2023-02-03T00:11:07;6.20;;;2.40;;
77854;SDS011;67046;50.088;14.336;2023-02-03T00:11:38;5.40;;;1.90;;
77854;SDS011;67046;50.088;14.336;2023-02-03T00:12:10;5.70;;;2.00;;
77854;SDS011;67046;50.088;14.336;2023-02-03T00:12:42;10.30;;;2.60;;
77854;SDS011;67046;50.088;14.336;2023-02-03T00:13:14;5.40;;;2.40;;
77854;SDS011;67046;50.088;14.336;2023-02-03T00:13:46;8.50;;;2.90;;
77854;SDS011;67046;50.088;14.336;2023-02-03T00:14:18;4.30;;;2.40;;
77854;SDS011;67046;50.088;14.336;2023-02-03T00:14:50;6.90;;;2.30;;
77854;SDS011;67046;50.088;14.336;2023-02-03T00:15:22;6.90;;;2.10;;
77854;SDS011;67046;50.088;14.336;2023-02-03T00:15:54;5.20;;;2.60;;
77854;SDS011;67046;50.088;14.336;2023-02-03T00:16:26;6.00;;;2.20;;
77854;SDS011;67046;50.088;14.336;2023-02-03T00:16:58;8.70;;;2.70;;
77854;SDS011;67046;50.088;14.336;2023-02-03T00:17:30;6.90;;;2.50;;
77854;SDS011;67046;50.088;14.336;2023-02-03T00:18:02;8.20;;;2.50;;
77854;SDS011;67046;50.088;14.336;2023-02-03T00:18:34;5.30;;;2.10;;
77854;SDS011;67046;50.088;14.336;2023-02-03T00:19:06;7.00;;;2.10;;
77854;SDS011;67046;50.088;14.336;2023-02-03T00:19:38;7.10;;;1.90;;
77854;SDS011;67046;50.088;14.336;2023-02-03T00:20:10;7.80;;;2.30;;
77854;SDS011;67046;50.088;14.336;2023-02-03T00:20:42;6.40;;;2.20;;
77854;SDS011;67046;50.088;14.336;2023-02-03T00:21:14;4.20;;;2.30;;
77854;SDS011;67046;50.088;14.336;2023-02-03T00:21:47;6.40;;;2.30;;
77854;SDS011;67046;50.088;14.336;2023-02-03T00:22:19;5.80;;;2.20;;
77854;SDS011;67046;50.088;14.336;2023-02-03T00:22:51;9.60;;;3.00;;
77854;SDS011;67046;50.088;14.336;2023-02-03T00:23:23;7.10;;;3.50;;
77854;SDS011;67046;50.088;14.336;2023-02-03T00:23:56;7.90;;;2.70;;
77854;SDS011;67046;50.088;14.336;2023-02-03T00:24:28;11.30;;;2.50;;
77854;SDS011;67046;50.088;14.336;2023-02-03T00:25:00;9.60;;;2.50;;
77854;SDS011;67046;50.088;14.336;2023-02-03T00:25:33;6.50;;;2.60;;
77854;SDS011;67046;50.088;14.336;2023-02-03T00:26:08;4.70;;;2.30;;
77854;SDS011;67046;50.088;14.336;2023-02-03T00:26:46;5.90;;;2.30;;
77854;SDS011;67046;50.088;14.336;2023-02-03T00:27:18;6.70;;;2.40;;
77854;SDS011;67046;50.088;14.336;2023-02-03T00:27:50;5.50;;;2.00;;
77854;SDS011;67046;50.088;14.336;2023-02-03T00:28:22;5.80;;;2.40;;
77854;SDS011;67046;50.088;14.336;2023-02-03T00:28:54;5.60;;;2.20;;
77854;SDS011;67046;50.088;14.336;2023-02-03T00:29:26;6.30;;;2.60;;
77854;SDS011;67046;50.088;14.336;2023-02-03T00:29:58;4.90;;;2.30;;
77854;SDS011;67046;50.088;14.336;2023-02-03T00:30:30;5.10;;;2.60;;
77854;SDS011;67046;50.088;14.336;2023-02-03T00:31:05;6.10;;;2.40;;
77854;SDS011;67046;50.088;14.336;2023-02-03T00:31:37;5.90;;;2.60;;
77854;SDS011;67046;50.088;14.336;2023-02-03T00:32:09;7.20;;;2.60;;
77854;SDS011;67046;50.088;14.336;2023-02-03T00:32:41;5.40;;;2.30;;
77854;SDS011;67046;50.088;14.336;2023-02-03T00:33:13;6.80;;;2.50;;
77854;SDS011;67046;50.088;14.336;2023-02-03T00:34:17;6.20;;;2.60;;
77854;SDS011;67046;50.088;14.336;2023-02-03T00:34:49;6.60;;;2.40;;
77854;SDS011;67046;50.088;14.336;2023-02-03T00:35:21;5.60;;;2.80;;
77854;SDS011;67046;50.088;14.336;2023-02-03T00:35:53;5.50;;;2.50;;
77854;SDS011;67046;50.088;14.336;2023-02-03T00:36:25;7.40;;;2.60;;
77854;SDS011;67046;50.088;14.336;2023-02-03T00:36:57;6.10;;;3.20;;
77854;SDS011;67046;50.088;14.336;2023-02-03T00:37:29;4.30;;;2.60;;
77854;SDS011;67046;50.088;14.336;2023-02-03T00:38:01;5.60;;;2.50;;
77854;SDS011;67046;50.088;14.336;2023-02-03T00:38:33;7.40;;;2.70;;
77854;SDS011;67046;50.088;14.336;2023-02-03T00:39:05;4.80;;;2.60;;
77854;SDS011;67046;50.088;14.336;2023-02-03T00:39:37;5.20;;;2.50;;
77854;SDS011;67046;50.088;14.336;2023-02-03T00:40:09;8.30;;;2.50;;
77854;SDS011;67046;50.088;14.336;2023-02-03T00:40:42;6.70;;;2.60;;
77854;SDS011;67046;50.088;14.336;2023-02-03T00:41:21;7.40;;;2.40;;
77854;SDS011;67046;50.088;14.336;2023-02-03T00:41:53;7.20;;;2.50;;
77854;SDS011;67046;50.088;14.336;2023-02-03T00:42:25;5.80;;;2.50;;
77854;SDS011;67046;50.088;14.336;2023-02-03T00:42:57;6.90;;;2.60;;
77854;SDS011;67046;50.088;14.336;2023-02-03T00:43:29;6.60;;;2.90;;
77854;SDS011;67046;50.088;14.336;2023-02-03T00:44:01;5.00;;;2.50;;
77854;SDS011;67046;50.088;14.336;2023-02-03T00:44:33;6.70;;;2.80;;
77854;SDS011;67046;50.088;14.336;2023-02-03T00:45:05;6.30;;;2.50;;
77854;SDS011;67046;50.088;14.336;2023-02-03T00:46:09;5.40;;;2.30;;
77854;SDS011;67046;50.088;14.336;2023-02-03T00:46:41;8.60;;;2.50;;
77854;SDS011;67046;50.088;14.336;2023-02-03T00:47:13;7.40;;;2.60;;
77854;SDS011;67046;50.088;14.336;2023-02-03T00:47:45;8.00;;;3.10;;
77854;SDS011;67046;50.088;14.336;2023-02-03T00:48:17;7.80;;;2.70;;
77854;SDS011;67046;50.088;14.336;2023-02-03T00:48:49;6.40;;;3.20;;
77854;SDS011;67046;50.088;14.336;2023-02-03T00:49:21;7.00;;;3.00;;
77854;SDS011;67046;50.088;14.336;2023-02-03T00:49:52;6.60;;;2.90;;
77854;SDS011;67046;50.088;14.336;2023-02-03T00:50:24;4.50;;;3.30;;
77854;SDS011;67046;50.088;14.336;2023-02-03T00:50:56;5.40;;;2.40;;
77854;SDS011;67046;50.088;14.336;2023-02-03T00:51:28;9.20;;;2.60;;
77854;SDS011;67046;50.088;14.336;2023-02-03T00:52:00;6.80;;;2.20;;
77854;SDS011;67046;50.088;14.336;2023-02-03T00:52:32;5.30;;;2.40;;
77854;SDS011;67046;50.088;14.336;2023-02-03T00:53:04;4.50;;;2.30;;
77854;SDS011;67046;50.088;14.336;2023-02-03T00:54:09;5.80;;;2.40;;
77854;SDS011;67046;50.088;14.336;2023-02-03T00:54:41;5.10;;;2.20;;
77854;SDS011;67046;50.088;14.336;2023-02-03T00:55:13;4.70;;;2.30;;
77854;SDS011;67046;50.088;14.336;2023-02-03T00:55:45;5.60;;;2.80;;
77854;SDS011;67046;50.088;14.336;2023-02-03T00:56:17;9.80;;;3.40;;
77854;SDS011;67046;50.088;14.336;2023-02-03T00:56:49;7.20;;;2.70;;
77854;SDS011;67046;50.088;14.336;2023-02-03T00:57:21;6.30;;;2.80;;
77854;SDS011;67046;50.088;14.336;2023-02-03T00:57:53;7.40;;;3.20;;
77854;SDS011;67046;50.088;14.336;2023-02-03T00:58:25;5.10;;;2.70;;
77854;SDS011;67046;50.088;14.336;2023-02-03T00:58:57;7.20;;;3.00;;
77854;SDS011;67046;50.088;14.336;2023-02-03T00:59:29;8.10;;;2.80;;
77854;SDS011;67046;50.088;14.336;2023-02-03T01:00:01;7.40;;;3.00;;
77854;SDS011;67046;50.088;14.336;2023-02-03T01:00:34;6.90;;;3.10;;
77854;SDS011;67046;50.088;14.336;2023-02-03T01:01:06;5.90;;;2.70;;
77854;SDS011;67046;50.088;14.336;2023-02-03T01:02:10;7.10;;;2.60;;
77854;SDS011;67046;50.088;14.336;2023-02-03T01:02:42;6.70;;;2.60;;
77854;SDS011;67046;50.088;14.336;2023-02-03T01:03:15;6.20;;;3.00;;
77854;SDS011;67046;50.088;14.336;2023-02-03T01:03:47;9.70;;;2.90;;
77854;SDS011;67046;50.088;14.336;2023-02-03T01:04:20;5.30;;;2.70;;
77854;SDS011;67046;50.088;14.336;2023-02-03T01:04:52;8.50;;;3.00;;
77854;SDS011;67046;50.088;14.336;2023-02-03T01:05:24;8.60;;;2.80;;
77854;SDS011;67046;50.088;14.336;2023-02-03T01:05:56;4.80;;;2.70;;
77854;SDS011;67046;50.088;14.336;2023-02-03T01:06:39;7.60;;;3.00;;
77854;SDS011;67046;50.088;14.336;2023-02-03T01:07:11;8.50;;;2.80;;
77854;SDS011;67046;50.088;14.336;2023-02-03T01:07:43;5.70;;;2.60;;
77854;SDS011;67046;50.088;14.336;2023-02-03T01:08:15;7.30;;;2.90;;
77854;SDS011;67046;50.088;14.336;2023-02-03T01:08:48;7.00;;;2.90;;
77854;SDS011;67046;50.088;14.336;2023-02-03T01:09:20;6.40;;;2.60;;
77854;SDS011;67046;50.088;14.336;2023-02-03T01:09:53;4.90;;;2.90;;
77854;SDS011;67046;50.088;14.336;2023-02-03T01:10:24;6.70;;;2.70;;
77854;SDS011;67046;50.088;14.336;2023-02-03T01:10:56;7.00;;;2.90;;
77854;SDS011;67046;50.088;14.336;2023-02-03T01:11:28;8.40;;;3.00;;
77854;SDS011;67046;50.088;14.336;2023-02-03T01:12:00;7.20;;;2.90;;
77854;SDS011;67046;50.088;14.336;2023-02-03T01:12:32;8.60;;;2.60;;
77854;SDS011;67046;50.088;14.336;2023-02-03T01:13:04;5.60;;;3.10;;
77854;SDS011;67046;50.088;14.336;2023-02-03T01:13:36;7.40;;;3.00;;
77854;SDS011;67046;50.088;14.336;2023-02-03T01:14:08;6.90;;;2.70;;
77854;SDS011;67046;50.088;14.336;2023-02-03T01:14:40;5.80;;;3.20;;
77854;SDS011;67046;50.088;14.336;2023-02-03T01:15:13;6.10;;;3.10;;
77854;SDS011;67046;50.088;14.336;2023-02-03T01:15:45;6.90;;;2.80;;
77854;SDS011;67046;50.088;14.336;2023-02-03T01:16:19;5.80;;;2.80;;
77854;SDS011;67046;50.088;14.336;2023-02-03T01:16:52;6.50;;;2.90;;
77854;SDS011;67046;50.088;14.336;2023-02-03T01:17:24;5.60;;;3.20;;
77854;SDS011;67046;50.088;14.336;2023-02-03T01:17:56;5.90;;;2.40;;
77854;SDS011;67046;50.088;14.336;2023-02-03T01:18:28;6.30;;;2.90;;
77854;SDS011;67046;50.088;14.336;2023-02-03T01:19:00;4.90;;;2.40;;
77854;SDS011;67046;50.088;14.336;2023-02-03T01:20:04;7.30;;;3.30;;
77854;SDS011;67046;50.088;14.336;2023-02-03T01:21:09;5.60;;;2.50;;
77854;SDS011;67046;50.088;14.336;2023-02-03T01:21:43;4.80;;;2.50;;
77854;SDS011;67046;50.088;14.336;2023-02-03T01:22:15;6.90;;;2.80;;
77854;SDS011;67046;50.088;14.336;2023-02-03T01:22:47;5.50;;;3.10;;
77854;SDS011;67046;50.088;14.336;2023-02-03T01:23:19;5.30;;;2.70;;
77854;SDS011;67046;50.088;14.336;2023-02-03T01:23:51;5.00;;;2.80;;
77854;SDS011;67046;50.088;14.336;2023-02-03T01:24:24;3.80;;;2.50;;
77854;SDS011;67046;50.088;14.336;2023-02-03T01:24:56;6.60;;;3.40;;
77854;SDS011;67046;50.088;14.336;2023-02-03T01:25:28;6.30;;;2.50;;
77854;SDS011;67046;50.088;14.336;2023-02-03T01:26:04;5.50;;;2.80;;
77854;SDS011;67046;50.088;14.336;2023-02-03T01:26:38;5.50;;;3.30;;
77854;SDS011;67046;50.088;14.336;2023-02-03T01:27:10;7.70;;;3.70;;
77854;SDS011;67046;50.088;14.336;2023-02-03T01:27:42;7.80;;;3.20;;
77854;SDS011;67046;50.088;14.336;2023-02-03T01:28:14;6.90;;;2.80;;
77854;SDS011;67046;50.088;14.336;2023-02-03T01:28:50;5.80;;;3.20;;
77854;SDS011;67046;50.088;14.336;2023-02-03T01:29:23;7.50;;;3.10;;
77854;SDS011;67046;50.088;14.336;2023-02-03T01:29:55;4.50;;;2.80;;
77854;SDS011;67046;50.088;14.336;2023-02-03T01:30:27;5.70;;;2.80;;
77854;SDS011;67046;50.088;14.336;2023-02-03T01:31:09;4.90;;;2.80;;
77854;SDS011;67046;50.088;14.336;2023-02-03T01:31:43;6.40;;;3.20;;
77854;SDS011;67046;50.088;14.336;2023-02-03T01:32:15;4.60;;;2.50;;
77854;SDS011;67046;50.088;14.336;2023-02-03T01:32:47;6.60;;;2.70;;
77854;SDS011;67046;50.088;14.336;2023-02-03T01:33:19;5.90;;;3.30;;
77854;SDS011;67046;50.088;14.336;2023-02-03T01:33:51;7.00;;;2.60;;
77854;SDS011;67046;50.088;14.336;2023-02-03T01:34:24;6.20;;;2.70;;
77854;SDS011;67046;50.088;14.336;2023-02-03T01:34:57;5.00;;;2.70;;
77854;SDS011;67046;50.088;14.336;2023-02-03T01:35:28;5.40;;;2.70;;
77854;SDS011;67046;50.088;14.336;2023-02-03T01:36:00;4.50;;;2.90;;
77854;SDS011;67046;50.088;14.336;2023-02-03T01:36:33;5.90;;;2.80;;
77854;SDS011;67046;50.088;14.336;2023-02-03T01:37:06;9.00;;;3.30;;
77854;SDS011;67046;50.088;14.336;2023-02-03T01:37:37;6.20;;;2.60;;
77854;SDS011;67046;50.088;14.336;2023-02-03T01:38:09;5.30;;;3.30;;
77854;SDS011;67046;50.088;14.336;2023-02-03T01:38:42;4.50;;;2.60;;
77854;SDS011;67046;50.088;14.336;2023-02-03T01:39:15;5.10;;;2.60;;
77854;SDS011;67046;50.088;14.336;2023-02-03T01:39:47;5.80;;;3.30;;
77854;SDS011;67046;50.088;14.336;2023-02-03T01:40:19;8.20;;;3.20;;
77854;SDS011;67046;50.088;14.336;2023-02-03T01:40:51;6.40;;;2.60;;
77854;SDS011;67046;50.088;14.336;2023-02-03T01:41:27;5.70;;;3.10;;
77854;SDS011;67046;50.088;14.336;2023-02-03T01:42:01;6.80;;;3.20;;
77854;SDS011;67046;50.088;14.336;2023-02-03T01:42:33;6.50;;;3.10;;
77854;SDS011;67046;50.088;14.336;2023-02-03T01:43:07;8.20;;;3.20;;
77854;SDS011;67046;50.088;14.336;2023-02-03T01:43:41;5.80;;;2.70;;
77854;SDS011;67046;50.088;14.336;2023-02-03T01:45:09;4.70;;;2.40;;
77854;SDS011;67046;50.088;14.336;2023-02-03T01:45:41;5.30;;;2.80;;
77854;SDS011;67046;50.088;14.336;2023-02-03T01:46:32;6.30;;;3.00;;
77854;SDS011;67046;50.088;14.336;2023-02-03T01:47:12;8.40;;;2.90;;
77854;SDS011;67046;50.088;14.336;2023-02-03T01:48:07;6.80;;;3.00;;
77854;SDS011;67046;50.088;14.336;2023-02-03T01:48:39;5.00;;;2.50;;
77854;SDS011;67046;50.088;14.336;2023-02-03T01:49:13;6.20;;;2.80;;
77854;SDS011;67046;50.088;14.336;2023-02-03T01:50:02;6.30;;;3.20;;
77854;SDS011;67046;50.088;14.336;2023-02-03T01:50:39;5.70;;;3.30;;
77854;SDS011;67046;50.088;14.336;2023-02-03T01:51:11;6.10;;;3.60;;
77854;SDS011;67046;50.088;14.336;2023-02-03T01:51:43;7.00;;;3.40;;
77854;SDS011;67046;50.088;14.336;2023-02-03T01:52:17;4.20;;;3.20;;
77854;SDS011;67046;50.088;14.336;2023-02-03T01:52:54;7.50;;;3.80;;
77854;SDS011;67046;50.088;14.336;2023-02-03T01:53:30;6.20;;;3.30;;
77854;SDS011;67046;50.088;14.336;2023-02-03T01:54:04;6.10;;;3.70;;
77854;SDS011;67046;50.088;14.336;2023-02-03T01:54:38;7.30;;;3.50;;
77854;SDS011;67046;50.088;14.336;2023-02-03T01:55:16;7.30;;;3.60;;
77854;SDS011;67046;50.088;14.336;2023-02-03T01:55:51;6.30;;;3.60;;
77854;SDS011;67046;50.088;14.336;2023-02-03T01:56:24;8.00;;;3.60;;
77854;SDS011;67046;50.088;14.336;2023-02-03T01:57:02;5.60;;;3.80;;
77854;SDS011;67046;50.088;14.336;2023-02-03T01:57:38;6.30;;;3.80;;
77854;SDS011;67046;50.088;14.336;2023-02-03T01:58:56;6.70;;;3.20;;
77854;SDS011;67046;50.088;14.336;2023-02-03T01:59:30;6.20;;;3.00;;
77854;SDS011;67046;50.088;14.336;2023-02-03T02:00:05;5.30;;;3.00;;
77854;SDS011;67046;50.088;14.336;2023-02-03T02:00:38;5.80;;;3.30;;
77854;SDS011;67046;50.088;14.336;2023-02-03T02:01:11;7.30;;;3.20;;
77854;SDS011;67046;50.088;14.336;2023-02-03T02:01:43;4.60;;;3.20;;
77854;SDS011;67046;50.088;14.336;2023-02-03T02:02:16;6.60;;;3.70;;
77854;SDS011;67046;50.088;14.336;2023-02-03T02:02:48;5.60;;;3.10;;
77854;SDS011;67046;50.088;14.336;2023-02-03T02:03:37;5.40;;;3.50;;
77854;SDS011;67046;50.088;14.336;2023-02-03T02:04:19;6.00;;;3.20;;
77854;SDS011;67046;50.088;14.336;2023-02-03T02:04:56;5.50;;;3.10;;
77854;SDS011;67046;50.088;14.336;2023-02-03T02:05:55;6.60;;;3.40;;
77854;SDS011;67046;50.088;14.336;2023-02-03T02:06:33;7.60;;;3.60;;
77854;SDS011;67046;50.088;14.336;2023-02-03T02:07:05;5.50;;;3.10;;
77854;SDS011;67046;50.088;14.336;2023-02-03T02:07:38;6.50;;;3.60;;
77854;SDS011;67046;50.088;14.336;2023-02-03T02:08:14;6.30;;;4.30;;
77854;SDS011;67046;50.088;14.336;2023-02-03T02:08:49;7.10;;;3.70;;
77854;SDS011;67046;50.088;14.336;2023-02-03T02:09:24;6.50;;;3.70;;
77854;SDS011;67046;50.088;14.336;2023-02-03T02:09:57;5.50;;;3.50;;
77854;SDS011;67046;50.088;14.336;2023-02-03T02:10:30;7.40;;;3.60;;
77854;SDS011;67046;50.088;14.336;2023-02-03T02:11:04;7.90;;;3.90;;
77854;SDS011;67046;50.088;14.336;2023-02-03T02:11:37;5.80;;;3.30;;
77854;SDS011;67046;50.088;14.336;2023-02-03T02:12:10;7.10;;;3.60;;
77854;SDS011;67046;50.088;14.336;2023-02-03T02:12:43;4.70;;;2.90;;
77854;SDS011;67046;50.088;14.336;2023-02-03T02:13:16;6.40;;;3.70;;
77854;SDS011;67046;50.088;14.336;2023-02-03T02:13:49;6.30;;;3.50;;
77854;SDS011;67046;50.088;14.336;2023-02-03T02:14:23;5.30;;;4.00;;
77854;SDS011;67046;50.088;14.336;2023-02-03T02:14:55;5.10;;;3.40;;
77854;SDS011;67046;50.088;14.336;2023-02-03T02:15:50;5.60;;;3.30;;
77854;SDS011;67046;50.088;14.336;2023-02-03T02:20:37;5.80;;;3.00;;
77854;SDS011;67046;50.088;14.336;2023-02-03T02:25:40;3.30;;;2.20;;
77854;SDS011;67046;50.088;14.336;2023-02-03T02:27:30;3.40;;;2.30;;
77854;SDS011;67046;50.088;14.336;2023-02-03T02:29:58;4.80;;;3.00;;
77854;SDS011;67046;50.088;14.336;2023-02-03T02:31:10;5.20;;;2.60;;
77854;SDS011;67046;50.088;14.336;2023-02-03T02:31:52;5.00;;;2.80;;
77854;SDS011;67046;50.088;14.336;2023-02-03T02:32:43;6.30;;;3.20;;
77854;SDS011;67046;50.088;14.336;2023-02-03T02:33:50;4.70;;;3.30;;
77854;SDS011;67046;50.088;14.336;2023-02-03T02:35:52;5.40;;;3.20;;
77854;SDS011;67046;50.088;14.336;2023-02-03T02:36:32;5.30;;;3.30;;
77854;SDS011;67046;50.088;14.336;2023-02-03T02:37:18;4.20;;;2.90;;
77854;SDS011;67046;50.088;14.336;2023-02-03T02:39:22;4.30;;;2.50;;
77854;SDS011;67046;50.088;14.336;2023-02-03T02:40:17;3.30;;;3.00;;
77854;SDS011;67046;50.088;14.336;2023-02-03T02:40:52;3.20;;;2.50;;
77854;SDS011;67046;50.088;14.336;2023-02-03T02:41:38;2.80;;;2.30;;
77854;SDS011;67046;50.088;14.336;2023-02-03T02:42:22;3.50;;;2.40;;
77854;SDS011;67046;50.088;14.336;2023-02-03T02:44:24;3.70;;;2.50;;
77854;SDS011;67046;50.088;14.336;2023-02-03T02:45:05;3.20;;;2.40;;
77854;SDS011;67046;50.088;14.336;2023-02-03T02:45:47;3.30;;;2.20;;
77854;SDS011;67046;50.088;14.336;2023-02-03T02:47:15;4.10;;;2.60;;
77854;SDS011;67046;50.088;14.336;2023-02-03T02:47:49;3.90;;;2.80;;
77854;SDS011;67046;50.088;14.336;2023-02-03T02:50:20;3.80;;;2.70;;
77854;SDS011;67046;50.088;14.336;2023-02-03T02:50:57;3.90;;;2.80;;
77854;SDS011;67046;50.088;14.336;2023-02-03T02:51:31;3.10;;;2.70;;
77854;SDS011;67046;50.088;14.336;2023-02-03T02:52:05;3.60;;;2.50;;
77854;SDS011;67046;50.088;14.336;2023-02-03T02:52:40;3.60;;;2.50;;
77854;SDS011;67046;50.088;14.336;2023-02-03T02:53:14;3.00;;;2.70;;
77854;SDS011;67046;50.088;14.336;2023-02-03T02:53:52;3.40;;;2.40;;
77854;SDS011;67046;50.088;14.336;2023-02-03T02:54:27;4.30;;;2.50;;
77854;SDS011;67046;50.088;14.336;2023-02-03T02:55:04;3.80;;;2.30;;
77854;SDS011;67046;50.088;14.336;2023-02-03T02:55:41;4.10;;;2.30;;
77854;SDS011;67046;50.088;14.336;2023-02-03T02:56:15;3.90;;;2.30;;
77854;SDS011;67046;50.088;14.336;2023-02-03T02:56:51;3.20;;;2.20;;
77854;SDS011;67046;50.088;14.336;2023-02-03T02:57:26;2.80;;;2.30;;
77854;SDS011;67046;50.088;14.336;2023-02-03T02:58:02;4.10;;;2.30;;
77854;SDS011;67046;50.088;14.336;2023-02-03T02:58:38;2.90;;;2.40;;
77854;SDS011;67046;50.088;14.336;2023-02-03T02:59:12;3.60;;;2.30;;
77854;SDS011;67046;50.088;14.336;2023-02-03T02:59:46;3.70;;;2.70;;
77854;SDS011;67046;50.088;14.336;2023-02-03T03:00:18;3.60;;;2.90;;
77854;SDS011;67046;50.088;14.336;2023-02-03T03:00:51;4.80;;;3.20;;
77854;SDS011;67046;50.088;14.336;2023-02-03T03:01:23;3.10;;;2.60;;
77854;SDS011;67046;50.088;14.336;2023-02-03T03:01:55;4.50;;;3.20;;
77854;SDS011;67046;50.088;14.336;2023-02-03T03:02:33;3.80;;;3.00;;
77854;SDS011;67046;50.088;14.336;2023-02-03T03:03:47;3.50;;;3.10;;
77854;SDS011;67046;50.088;14.336;2023-02-03T03:04:27;4.10;;;2.80;;
77854;SDS011;67046;50.088;14.336;2023-02-03T03:05:03;3.10;;;2.20;;
77854;SDS011;67046;50.088;14.336;2023-02-03T03:05:38;3.30;;;2.40;;
77854;SDS011;67046;50.088;14.336;2023-02-03T03:06:16;3.60;;;2.60;;
77854;SDS011;67046;50.088;14.336;2023-02-03T03:07:00;2.70;;;2.30;;
77854;SDS011;67046;50.088;14.336;2023-02-03T03:07:40;2.70;;;2.30;;
77854;SDS011;67046;50.088;14.336;2023-02-03T03:08:18;2.90;;;2.10;;
77854;SDS011;67046;50.088;14.336;2023-02-03T03:08:54;3.30;;;2.30;;
77854;SDS011;67046;50.088;14.336;2023-02-03T03:09:35;3.30;;;2.50;;
77854;SDS011;67046;50.088;14.336;2023-02-03T03:10:13;2.80;;;2.20;;
77854;SDS011;67046;50.088;14.336;2023-02-03T03:10:52;3.10;;;2.70;;
77854;SDS011;67046;50.088;14.336;2023-02-03T03:11:27;2.70;;;2.00;;
77854;SDS011;67046;50.088;14.336;2023-02-03T03:12:18;2.40;;;2.20;;
77854;SDS011;67046;50.088;14.336;2023-02-03T03:12:52;3.40;;;2.20;;
77854;SDS011;67046;50.088;14.336;2023-02-03T03:13:29;4.40;;;2.60;;
77854;SDS011;67046;50.088;14.336;2023-02-03T03:14:04;3.20;;;2.10;;
77854;SDS011;67046;50.088;14.336;2023-02-03T03:14:41;2.80;;;2.10;;
77854;SDS011;67046;50.088;14.336;2023-02-03T03:15:21;2.80;;;2.10;;
77854;SDS011;67046;50.088;14.336;2023-02-03T03:15:57;3.60;;;2.80;;
77854;SDS011;67046;50.088;14.336;2023-02-03T03:16:33;3.70;;;2.10;;
77854;SDS011;67046;50.088;14.336;2023-02-03T03:17:10;2.30;;;1.70;;
77854;SDS011;67046;50.088;14.336;2023-02-03T03:17:48;2.20;;;1.60;;
77854;SDS011;67046;50.088;14.336;2023-02-03T03:18:27;2.80;;;1.70;;
77854;SDS011;67046;50.088;14.336;2023-02-03T03:19:05;2.70;;;1.90;;
77854;SDS011;67046;50.088;14.336;2023-02-03T03:19:46;2.10;;;1.60;;
77854;SDS011;67046;50.088;14.336;2023-02-03T03:20:23;2.10;;;1.70;;
77854;SDS011;67046;50.088;14.336;2023-02-03T03:20:57;2.10;;;1.60;;
77854;SDS011;67046;50.088;14.336;2023-02-03T03:21:37;2.30;;;1.70;;
77854;SDS011;67046;50.088;14.336;2023-02-03T03:22:14;2.70;;;1.50;;
77854;SDS011;67046;50.088;14.336;2023-02-03T03:22:51;1.90;;;1.40;;
77854;SDS011;67046;50.088;14.336;2023-02-03T03:23:48;1.60;;;1.10;;
77854;SDS011;67046;50.088;14.336;2023-02-03T03:24:32;2.70;;;1.70;;
77854;SDS011;67046;50.088;14.336;2023-02-03T03:25:14;1.70;;;1.20;;
77854;SDS011;67046;50.088;14.336;2023-02-03T03:25:50;2.80;;;2.00;;
77854;SDS011;67046;50.088;14.336;2023-02-03T03:26:37;2.10;;;1.40;;
77854;SDS011;67046;50.088;14.336;2023-02-03T03:27:22;2.40;;;1.50;;
77854;SDS011;67046;50.088;14.336;2023-02-03T03:27:58;2.80;;;1.70;;
77854;SDS011;67046;50.088;14.336;2023-02-03T03:28:44;2.40;;;1.60;;
77854;SDS011;67046;50.088;14.336;2023-02-03T03:29:29;1.90;;;1.20;;
77854;SDS011;67046;50.088;14.336;2023-02-03T03:30:19;3.50;;;1.50;;
77854;SDS011;67046;50.088;14.336;2023-02-03T03:30:55;1.80;;;1.20;;
77854;SDS011;67046;50.088;14.336;2023-02-03T03:31:28;2.00;;;1.30;;
77854;SDS011;67046;50.088;14.336;2023-02-03T03:32:00;2.10;;;1.60;;
77854;SDS011;67046;50.088;14.336;2023-02-03T03:32:33;2.70;;;1.50;;
77854;SDS011;67046;50.088;14.336;2023-02-03T03:33:06;1.80;;;1.20;;
77854;SDS011;67046;50.088;14.336;2023-02-03T03:33:39;2.40;;;1.60;;
77854;SDS011;67046;50.088;14.336;2023-02-03T03:34:45;1.70;;;1.20;;
77854;SDS011;67046;50.088;14.336;2023-02-03T03:35:18;1.90;;;1.30;;
77854;SDS011;67046;50.088;14.336;2023-02-03T03:36:05;1.80;;;1.00;;
77854;SDS011;67046;50.088;14.336;2023-02-03T03:37:12;1.60;;;1.20;;
77854;SDS011;67046;50.088;14.336;2023-02-03T03:38:05;1.60;;;0.90;;
77854;SDS011;67046;50.088;14.336;2023-02-03T03:38:53;2.10;;;1.00;;
77854;SDS011;67046;50.088;14.336;2023-02-03T03:40:37;1.60;;;1.20;;
77854;SDS011;67046;50.088;14.336;2023-02-03T03:41:16;1.90;;;1.40;;
77854;SDS011;67046;50.088;14.336;2023-02-03T03:41:57;1.70;;;1.40;;
77854;SDS011;67046;50.088;14.336;2023-02-03T03:42:43;1.60;;;1.00;;
77854;SDS011;67046;50.088;14.336;2023-02-03T03:43:21;1.70;;;1.20;;
77854;SDS011;67046;50.088;14.336;2023-02-03T03:44:00;4.00;;;1.30;;
77854;SDS011;67046;50.088;14.336;2023-02-03T03:44:37;2.00;;;1.40;;
77854;SDS011;67046;50.088;14.336;2023-02-03T03:46:11;1.80;;;1.50;;
77854;SDS011;67046;50.088;14.336;2023-02-03T03:46:47;1.80;;;1.10;;
77854;SDS011;67046;50.088;14.336;2023-02-03T03:47:26;1.70;;;1.10;;
77854;SDS011;67046;50.088;14.336;2023-02-03T03:48:18;3.00;;;1.30;;
77854;SDS011;67046;50.088;14.336;2023-02-03T03:49:03;2.80;;;1.40;;
77854;SDS011;67046;50.088;14.336;2023-02-03T03:49:39;1.80;;;1.10;;
77854;SDS011;67046;50.088;14.336;2023-02-03T03:50:17;1.90;;;1.20;;
77854;SDS011;67046;50.088;14.336;2023-02-03T03:50:54;2.30;;;1.50;;
77854;SDS011;67046;50.088;14.336;2023-02-03T03:51:36;2.50;;;1.50;;
77854;SDS011;67046;50.088;14.336;2023-02-03T03:52:14;2.60;;;1.30;;
77854;SDS011;67046;50.088;14.336;2023-02-03T03:52:51;2.00;;;1.50;;
77854;SDS011;67046;50.088;14.336;2023-02-03T03:53:25;1.80;;;1.30;;
77854;SDS011;67046;50.088;14.336;2023-02-03T03:54:03;1.60;;;1.20;;
77854;SDS011;67046;50.088;14.336;2023-02-03T03:54:39;2.50;;;1.40;;
77854;SDS011;67046;50.088;14.336;2023-02-03T03:55:13;2.80;;;1.30;;
77854;SDS011;67046;50.088;14.336;2023-02-03T03:55:48;3.40;;;1.30;;
77854;SDS011;67046;50.088;14.336;2023-02-03T03:56:24;1.80;;;1.20;;
77854;SDS011;67046;50.088;14.336;2023-02-03T03:57:04;3.30;;;1.60;;
77854;SDS011;67046;50.088;14.336;2023-02-03T03:58:37;1.80;;;1.40;;
77854;SDS011;67046;50.088;14.336;2023-02-03T03:59:14;1.60;;;1.30;;